sensor_id;sensor_type;location;lat;lon;timestamp;pressure;altitude;pressure_sealevel;temperature;humidity
9764;BME280;4921;43.214;27.936;2022-09-14T00:01:27;100724.03;;;19.63;93.31
9764;BME280;4921;43.214;27.936;2022-09-14T00:03:56;100723.56;;;19.59;94.26
9764;BME280;4921;43.214;27.936;2022-09-14T00:06:24;100725.22;;;19.60;92.89
9764;BME280;4921;43.214;27.936;2022-09-14T00:08:53;100718.88;;;19.61;92.12
9764;BME280;4921;43.214;27.936;2022-09-14T00:11:21;100724.22;;;19.61;92.35
9764;BME280;4921;43.214;27.936;2022-09-14T00:13:51;100726.03;;;19.61;92.08
9764;BME280;4921;43.214;27.936;2022-09-14T00:16:21;100717.84;;;19.62;92.04
9764;BME280;4921;43.214;27.936;2022-09-14T00:18:52;100721.88;;;19.58;92.64
9764;BME280;4921;43.214;27.936;2022-09-14T00:21:20;100723.09;;;19.56;92.53
9764;BME280;4921;43.214;27.936;2022-09-14T00:23:47;100720.25;;;19.57;93.14
9764;BME280;4921;43.214;27.936;2022-09-14T00:26:16;100732.75;;;19.57;93.31
9764;BME280;4921;43.214;27.936;2022-09-14T00:28:45;100726.88;;;19.61;92.77
9764;BME280;4921;43.214;27.936;2022-09-14T00:31:12;100734.34;;;19.66;92.12
9764;BME280;4921;43.214;27.936;2022-09-14T00:33:42;100739.31;;;19.69;91.93
9764;BME280;4921;43.214;27.936;2022-09-14T00:36:14;100740.94;;;19.78;91.05
9764;BME280;4921;43.214;27.936;2022-09-14T00:38:41;100735.16;;;19.89;90.70
9764;BME280;4921;43.214;27.936;2022-09-14T00:41:11;100741.47;;;19.96;89.85
9764;BME280;4921;43.214;27.936;2022-09-14T00:43:54;100743.41;;;20.02;89.00
9764;BME280;4921;43.214;27.936;2022-09-14T00:46:21;100736.88;;;20.05;88.21
9764;BME280;4921;43.214;27.936;2022-09-14T00:48:49;100734.66;;;20.08;87.39
9764;BME280;4921;43.214;27.936;2022-09-14T00:51:18;100724.94;;;20.15;86.29
9764;BME280;4921;43.214;27.936;2022-09-14T00:53:45;100736.75;;;20.21;86.03
9764;BME280;4921;43.214;27.936;2022-09-14T00:56:13;100729.50;;;20.29;85.77
9764;BME280;4921;43.214;27.936;2022-09-14T00:58:40;100731.81;;;20.32;85.10
9764;BME280;4921;43.214;27.936;2022-09-14T01:01:07;100734.59;;;20.39;84.61
9764;BME280;4921;43.214;27.936;2022-09-14T01:03:34;100727.75;;;20.36;83.53
9764;BME280;4921;43.214;27.936;2022-09-14T01:06:11;100735.59;;;20.38;82.94
9764;BME280;4921;43.214;27.936;2022-09-14T01:08:52;100728.59;;;20.37;82.23
9764;BME280;4921;43.214;27.936;2022-09-14T01:11:47;100728.59;;;20.37;82.01
9764;BME280;4921;43.214;27.936;2022-09-14T01:14:24;100726.47;;;20.32;81.69
9764;BME280;4921;43.214;27.936;2022-09-14T01:16:57;100738.53;;;20.28;81.26
9764;BME280;4921;43.214;27.936;2022-09-14T01:19:43;100730.41;;;20.22;82.25
9764;BME280;4921;43.214;27.936;2022-09-14T01:22:18;100725.72;;;20.24;82.12
9764;BME280;4921;43.214;27.936;2022-09-14T01:24:53;100739.06;;;20.24;81.92
9764;BME280;4921;43.214;27.936;2022-09-14T01:27:33;100730.72;;;20.27;81.63
9764;BME280;4921;43.214;27.936;2022-09-14T01:30:07;100731.56;;;20.19;82.10
9764;BME280;4921;43.214;27.936;2022-09-14T01:32:39;100723.25;;;20.22;82.09
9764;BME280;4921;43.214;27.936;2022-09-14T01:35:13;100728.25;;;20.17;81.52
9764;BME280;4921;43.214;27.936;2022-09-14T01:37:44;100727.31;;;20.10;80.88
9764;BME280;4921;43.214;27.936;2022-09-14T01:40:15;100722.63;;;20.12;80.84
9764;BME280;4921;43.214;27.936;2022-09-14T01:42:56;100723.00;;;20.09;80.00
9764;BME280;4921;43.214;27.936;2022-09-14T01:45:25;100728.03;;;20.04;80.27
9764;BME280;4921;43.214;27.936;2022-09-14T01:47:55;100725.38;;;20.04;78.81
9764;BME280;4921;43.214;27.936;2022-09-14T01:50:29;100722.69;;;20.04;77.53
9764;BME280;4921;43.214;27.936;2022-09-14T01:53:05;100738.06;;;20.02;76.02
9764;BME280;4921;43.214;27.936;2022-09-14T01:55:38;100732.44;;;19.97;74.17
9764;BME280;4921;43.214;27.936;2022-09-14T01:58:12;100737.13;;;19.95;72.83
9764;BME280;4921;43.214;27.936;2022-09-14T02:00:43;100737.66;;;19.91;71.60
9764;BME280;4921;43.214;27.936;2022-09-14T02:03:14;100734.41;;;19.81;71.80
9764;BME280;4921;43.214;27.936;2022-09-14T02:05:47;100737.25;;;19.79;71.77
9764;BME280;4921;43.214;27.936;2022-09-14T02:08:15;100733.81;;;19.70;71.95
9764;BME280;4921;43.214;27.936;2022-09-14T02:10:43;100732.53;;;19.66;72.38
9764;BME280;4921;43.214;27.936;2022-09-14T02:13:11;100734.34;;;19.66;72.96
9764;BME280;4921;43.214;27.936;2022-09-14T02:15:38;100741.59;;;19.57;73.17
9764;BME280;4921;43.214;27.936;2022-09-14T02:18:05;100743.41;;;19.57;73.63
9764;BME280;4921;43.214;27.936;2022-09-14T02:20:38;100736.97;;;19.51;73.97
9764;BME280;4921;43.214;27.936;2022-09-14T02:23:07;100741.47;;;19.51;73.36
9764;BME280;4921;43.214;27.936;2022-09-14T02:25:34;100738.59;;;19.52;73.30
9764;BME280;4921;43.214;27.936;2022-09-14T02:28:02;100744.66;;;19.46;73.83
9764;BME280;4921;43.214;27.936;2022-09-14T02:30:46;100742.38;;;19.35;73.68
9764;BME280;4921;43.214;27.936;2022-09-14T02:33:20;100734.53;;;19.34;72.91
9764;BME280;4921;43.214;27.936;2022-09-14T02:35:52;100744.03;;;19.28;72.93
9764;BME280;4921;43.214;27.936;2022-09-14T02:38:25;100739.75;;;19.27;72.57
9764;BME280;4921;43.214;27.936;2022-09-14T02:40:57;100743.41;;;19.26;72.84
9764;BME280;4921;43.214;27.936;2022-09-14T02:43:32;100738.91;;;19.27;73.00
9764;BME280;4921;43.214;27.936;2022-09-14T02:46:09;100734.31;;;19.13;73.00
9764;BME280;4921;43.214;27.936;2022-09-14T02:48:46;100729.13;;;19.11;72.76
9764;BME280;4921;43.214;27.936;2022-09-14T02:51:20;100730.34;;;19.00;73.40
9764;BME280;4921;43.214;27.936;2022-09-14T02:53:54;100727.91;;;18.91;74.38
9764;BME280;4921;43.214;27.936;2022-09-14T02:56:24;100727.13;;;18.82;74.82
9764;BME280;4921;43.214;27.936;2022-09-14T02:58:52;100733.63;;;18.72;75.92
9764;BME280;4921;43.214;27.936;2022-09-14T03:01:39;100729.00;;;18.66;76.88
9764;BME280;4921;43.214;27.936;2022-09-14T03:04:06;100740.16;;;18.61;76.00
9764;BME280;4921;43.214;27.936;2022-09-14T03:06:33;100735.66;;;18.62;76.81
9764;BME280;4921;43.214;27.936;2022-09-14T03:09:00;100735.34;;;18.57;77.35
9764;BME280;4921;43.214;27.936;2022-09-14T03:11:27;100736.34;;;18.56;77.80
9764;BME280;4921;43.214;27.936;2022-09-14T03:13:54;100716.72;;;18.41;79.39
9764;BME280;4921;43.214;27.936;2022-09-14T03:16:21;100733.84;;;18.38;80.41
9764;BME280;4921;43.214;27.936;2022-09-14T03:18:49;100737.53;;;18.37;79.00
9764;BME280;4921;43.214;27.936;2022-09-14T03:21:17;100726.56;;;18.32;78.88
9764;BME280;4921;43.214;27.936;2022-09-14T03:23:46;100729.72;;;18.27;79.90
9764;BME280;4921;43.214;27.936;2022-09-14T03:26:15;100729.91;;;18.26;80.67
9764;BME280;4921;43.214;27.936;2022-09-14T03:28:42;100724.56;;;18.18;81.35
9764;BME280;4921;43.214;27.936;2022-09-14T03:31:11;100737.41;;;18.06;81.37
9764;BME280;4921;43.214;27.936;2022-09-14T03:33:38;100743.88;;;18.04;80.71
9764;BME280;4921;43.214;27.936;2022-09-14T03:36:11;100728.91;;;18.03;80.58
9764;BME280;4921;43.214;27.936;2022-09-14T03:38:42;100743.53;;;17.99;80.92
9764;BME280;4921;43.214;27.936;2022-09-14T03:41:09;100747.03;;;17.91;81.87
9764;BME280;4921;43.214;27.936;2022-09-14T03:43:36;100754.84;;;17.93;80.53
9764;BME280;4921;43.214;27.936;2022-09-14T03:46:04;100761.00;;;17.93;80.60
9764;BME280;4921;43.214;27.936;2022-09-14T03:48:32;100767.50;;;17.99;80.21
9764;BME280;4921;43.214;27.936;2022-09-14T03:50:59;100763.50;;;17.95;79.54
9764;BME280;4921;43.214;27.936;2022-09-14T03:53:27;100765.31;;;17.94;80.33
9764;BME280;4921;43.214;27.936;2022-09-14T03:55:54;100769.47;;;17.97;79.88
9764;BME280;4921;43.214;27.936;2022-09-14T03:58:21;100764.50;;;17.94;79.71
9764;BME280;4921;43.214;27.936;2022-09-14T04:00:49;100769.16;;;17.92;80.53
9764;BME280;4921;43.214;27.936;2022-09-14T04:03:16;100772.00;;;17.98;80.40
9764;BME280;4921;43.214;27.936;2022-09-14T04:05:43;100770.31;;;17.81;78.95
9764;BME280;4921;43.214;27.936;2022-09-14T04:08:19;100768.50;;;17.90;77.59
9764;BME280;4921;43.214;27.936;2022-09-14T04:10:47;100771.97;;;17.90;76.30
9764;BME280;4921;43.214;27.936;2022-09-14T04:13:14;100776.97;;;17.93;76.60
9764;BME280;4921;43.214;27.936;2022-09-14T04:15:41;100773.66;;;17.91;75.83
9764;BME280;4921;43.214;27.936;2022-09-14T04:18:08;100770.31;;;17.89;75.46
9764;BME280;4921;43.214;27.936;2022-09-14T04:20:35;100782.47;;;18.00;73.82
9764;BME280;4921;43.214;27.936;2022-09-14T04:23:02;100777.81;;;18.02;73.45
9764;BME280;4921;43.214;27.936;2022-09-14T04:25:29;100775.81;;;17.96;72.53
9764;BME280;4921;43.214;27.936;2022-09-14T04:27:58;100779.97;;;18.06;72.80
9764;BME280;4921;43.214;27.936;2022-09-14T04:30:24;100782.63;;;18.14;72.38
9764;BME280;4921;43.214;27.936;2022-09-14T04:32:52;100785.97;;;18.08;70.81
9764;BME280;4921;43.214;27.936;2022-09-14T04:35:19;100785.97;;;18.16;71.96
9764;BME280;4921;43.214;27.936;2022-09-14T04:37:46;100785.81;;;18.26;70.14
9764;BME280;4921;43.214;27.936;2022-09-14T04:40:13;100790.47;;;18.24;68.87
9764;BME280;4921;43.214;27.936;2022-09-14T04:42:40;100788.94;;;18.29;69.04
9764;BME280;4921;43.214;27.936;2022-09-14T04:45:09;100788.28;;;18.36;68.58
9764;BME280;4921;43.214;27.936;2022-09-14T04:47:37;100795.09;;;18.38;67.96
9764;BME280;4921;43.214;27.936;2022-09-14T04:50:04;100791.09;;;18.42;67.47
9764;BME280;4921;43.214;27.936;2022-09-14T04:52:31;100794.78;;;18.49;66.50
9764;BME280;4921;43.214;27.936;2022-09-14T04:54:58;100791.94;;;18.51;65.80
9764;BME280;4921;43.214;27.936;2022-09-14T04:57:26;100789.63;;;18.56;65.62
9764;BME280;4921;43.214;27.936;2022-09-14T04:59:52;100800.28;;;18.56;65.19
9764;BME280;4921;43.214;27.936;2022-09-14T05:02:21;100788.75;;;18.63;65.22
9764;BME280;4921;43.214;27.936;2022-09-14T05:04:47;100788.91;;;18.70;63.97
9764;BME280;4921;43.214;27.936;2022-09-14T05:07:14;100783.44;;;18.71;64.64
9764;BME280;4921;43.214;27.936;2022-09-14T05:09:41;100762.13;;;18.63;64.78
9764;BME280;4921;43.214;27.936;2022-09-14T05:12:08;100795.06;;;18.86;63.89
9764;BME280;4921;43.214;27.936;2022-09-14T05:14:35;100788.56;;;18.89;63.38
9764;BME280;4921;43.214;27.936;2022-09-14T05:17:02;100793.69;;;18.98;63.47
9764;BME280;4921;43.214;27.936;2022-09-14T05:19:30;100792.97;;;19.04;62.58
9764;BME280;4921;43.214;27.936;2022-09-14T05:21:57;100792.97;;;19.13;61.55
9764;BME280;4921;43.214;27.936;2022-09-14T05:24:24;100794.09;;;19.18;61.58
9764;BME280;4921;43.214;27.936;2022-09-14T05:26:51;100795.91;;;19.26;61.43
9764;BME280;4921;43.214;27.936;2022-09-14T05:29:19;100798.53;;;19.34;61.11
9764;BME280;4921;43.214;27.936;2022-09-14T05:31:46;100802.88;;;19.43;63.22
9764;BME280;4921;43.214;27.936;2022-09-14T05:34:13;100801.16;;;19.50;64.63
9764;BME280;4921;43.214;27.936;2022-09-14T05:36:42;100806.59;;;19.64;65.03
9764;BME280;4921;43.214;27.936;2022-09-14T05:39:09;100805.16;;;19.76;65.56
9764;BME280;4921;43.214;27.936;2022-09-14T05:41:36;100807.78;;;19.85;63.94
9764;BME280;4921;43.214;27.936;2022-09-14T05:44:04;100800.72;;;19.92;65.17
9764;BME280;4921;43.214;27.936;2022-09-14T05:46:31;100808.50;;;20.01;64.82
9764;BME280;4921;43.214;27.936;2022-09-14T05:48:58;100820.63;;;20.12;64.09
9764;BME280;4921;43.214;27.936;2022-09-14T05:51:26;100822.22;;;20.21;62.83
9764;BME280;4921;43.214;27.936;2022-09-14T05:53:56;100820.88;;;20.25;59.65
9764;BME280;4921;43.214;27.936;2022-09-14T05:56:25;100816.84;;;20.29;59.02
9764;BME280;4921;43.214;27.936;2022-09-14T05:58:52;100819.97;;;20.32;58.87
9764;BME280;4921;43.214;27.936;2022-09-14T06:01:21;100824.97;;;20.35;58.96
9764;BME280;4921;43.214;27.936;2022-09-14T06:03:49;100811.59;;;20.35;59.05
9764;BME280;4921;43.214;27.936;2022-09-14T06:06:17;100821.56;;;20.41;58.82
9764;BME280;4921;43.214;27.936;2022-09-14T06:08:45;100822.66;;;20.47;58.73
9764;BME280;4921;43.214;27.936;2022-09-14T06:11:17;100831.81;;;20.52;58.42
9764;BME280;4921;43.214;27.936;2022-09-14T06:13:46;100837.63;;;20.56;58.31
9764;BME280;4921;43.214;27.936;2022-09-14T06:16:15;100840.09;;;20.58;57.98
9764;BME280;4921;43.214;27.936;2022-09-14T06:18:43;100852.13;;;20.62;56.20
9764;BME280;4921;43.214;27.936;2022-09-14T06:21:13;100846.84;;;20.68;56.29
9764;BME280;4921;43.214;27.936;2022-09-14T06:23:41;100853.13;;;20.75;56.46
9764;BME280;4921;43.214;27.936;2022-09-14T06:26:08;100852.41;;;20.81;55.97
9764;BME280;4921;43.214;27.936;2022-09-14T06:28:37;100845.72;;;20.85;55.70
9764;BME280;4921;43.214;27.936;2022-09-14T06:31:05;100857.31;;;20.92;55.84
9764;BME280;4921;43.214;27.936;2022-09-14T06:33:34;100854.09;;;20.97;55.98
9764;BME280;4921;43.214;27.936;2022-09-14T06:36:03;100845.19;;;21.04;55.84
9764;BME280;4921;43.214;27.936;2022-09-14T06:38:31;100845.44;;;21.09;55.39
9764;BME280;4921;43.214;27.936;2022-09-14T06:40:59;100856.72;;;21.19;55.07
9764;BME280;4921;43.214;27.936;2022-09-14T06:43:29;100845.91;;;21.27;55.17
9764;BME280;4921;43.214;27.936;2022-09-14T06:46:02;100850.31;;;21.35;55.01
9764;BME280;4921;43.214;27.936;2022-09-14T06:48:31;100860.97;;;21.43;54.07
9764;BME280;4921;43.214;27.936;2022-09-14T06:50:59;100853.81;;;21.50;53.33
9764;BME280;4921;43.214;27.936;2022-09-14T06:53:26;100850.41;;;21.56;53.11
9764;BME280;4921;43.214;27.936;2022-09-14T06:55:56;100862.28;;;21.68;53.26
9764;BME280;4921;43.214;27.936;2022-09-14T06:58:23;100858.69;;;21.76;53.67
9764;BME280;4921;43.214;27.936;2022-09-14T07:00:50;100856.75;;;21.84;53.82
9764;BME280;4921;43.214;27.936;2022-09-14T07:03:19;100848.41;;;21.94;52.80
9764;BME280;4921;43.214;27.936;2022-09-14T07:05:45;100853.84;;;22.00;52.51
9764;BME280;4921;43.214;27.936;2022-09-14T07:08:12;100863.00;;;22.13;53.83
9764;BME280;4921;43.214;27.936;2022-09-14T07:10:39;100871.78;;;22.21;52.97
9764;BME280;4921;43.214;27.936;2022-09-14T07:13:07;100865.25;;;22.30;51.80
9764;BME280;4921;43.214;27.936;2022-09-14T07:15:34;100866.97;;;22.38;50.68
9764;BME280;4921;43.214;27.936;2022-09-14T07:18:01;100870.56;;;22.45;50.18
9764;BME280;4921;43.214;27.936;2022-09-14T07:20:30;100860.06;;;22.50;49.78
9764;BME280;4921;43.214;27.936;2022-09-14T07:22:57;100857.25;;;22.58;49.19
9764;BME280;4921;43.214;27.936;2022-09-14T07:25:24;100866.22;;;22.65;49.71
9764;BME280;4921;43.214;27.936;2022-09-14T07:27:51;100861.47;;;22.67;48.81
9764;BME280;4921;43.214;27.936;2022-09-14T07:30:17;100851.66;;;22.74;48.22
9764;BME280;4921;43.214;27.936;2022-09-14T07:32:44;100859.09;;;22.79;47.63
9764;BME280;4921;43.214;27.936;2022-09-14T07:35:11;100858.13;;;22.86;47.56
9764;BME280;4921;43.214;27.936;2022-09-14T07:37:39;100855.31;;;22.94;47.48
9764;BME280;4921;43.214;27.936;2022-09-14T07:40:07;100858.22;;;22.99;47.31
9764;BME280;4921;43.214;27.936;2022-09-14T07:42:35;100857.63;;;23.04;46.82
9764;BME280;4921;43.214;27.936;2022-09-14T07:45:02;100851.66;;;23.08;46.98
9764;BME280;4921;43.214;27.936;2022-09-14T07:47:30;100864.88;;;23.10;47.10
9764;BME280;4921;43.214;27.936;2022-09-14T07:50:14;100855.47;;;23.20;46.99
9764;BME280;4921;43.214;27.936;2022-09-14T07:52:43;100857.75;;;23.23;46.41
9764;BME280;4921;43.214;27.936;2022-09-14T07:55:10;100849.94;;;23.28;45.91
9764;BME280;4921;43.214;27.936;2022-09-14T07:57:37;100850.34;;;23.32;45.58
9764;BME280;4921;43.214;27.936;2022-09-14T08:00:06;100844.00;;;23.33;45.10
9764;BME280;4921;43.214;27.936;2022-09-14T08:02:34;100854.56;;;23.41;44.91
9764;BME280;4921;43.214;27.936;2022-09-14T08:05:01;100858.91;;;23.48;44.65
9764;BME280;4921;43.214;27.936;2022-09-14T08:07:28;100857.72;;;23.58;44.06
9764;BME280;4921;43.214;27.936;2022-09-14T08:09:56;100841.22;;;23.61;44.20
9764;BME280;4921;43.214;27.936;2022-09-14T08:12:23;100851.56;;;23.70;43.35
9764;BME280;4921;43.214;27.936;2022-09-14T08:14:50;100840.44;;;23.73;43.53
9764;BME280;4921;43.214;27.936;2022-09-14T08:17:18;100845.22;;;23.84;42.81
9764;BME280;4921;43.214;27.936;2022-09-14T08:19:48;100844.19;;;23.85;42.71
9764;BME280;4921;43.214;27.936;2022-09-14T08:22:16;100845.25;;;23.91;42.80
9764;BME280;4921;43.214;27.936;2022-09-14T08:24:43;100846.28;;;23.96;42.65
9764;BME280;4921;43.214;27.936;2022-09-14T08:27:11;100852.09;;;24.00;42.39
9764;BME280;4921;43.214;27.936;2022-09-14T08:29:38;100849.63;;;24.05;42.19
9764;BME280;4921;43.214;27.936;2022-09-14T08:32:05;100848.41;;;24.14;42.06
9764;BME280;4921;43.214;27.936;2022-09-14T08:34:32;100844.72;;;24.21;42.21
9764;BME280;4921;43.214;27.936;2022-09-14T08:36:58;100848.44;;;24.27;42.17
9764;BME280;4921;43.214;27.936;2022-09-14T08:39:25;100843.69;;;24.36;42.71
9764;BME280;4921;43.214;27.936;2022-09-14T08:41:54;100844.75;;;24.41;41.97
9764;BME280;4921;43.214;27.936;2022-09-14T08:44:26;100849.06;;;24.49;41.50
9764;BME280;4921;43.214;27.936;2022-09-14T08:46:58;100844.31;;;24.57;41.06
9764;BME280;4921;43.214;27.936;2022-09-14T08:49:37;100834.56;;;24.63;40.80
9764;BME280;4921;43.214;27.936;2022-09-14T08:52:12;100840.78;;;24.70;40.72
9764;BME280;4921;43.214;27.936;2022-09-14T08:54:41;100829.00;;;24.71;40.07
9764;BME280;4921;43.214;27.936;2022-09-14T08:57:13;100828.41;;;24.82;40.84
9764;BME280;4921;43.214;27.936;2022-09-14T08:59:51;100832.72;;;24.89;40.44
9764;BME280;4921;43.214;27.936;2022-09-14T09:02:45;100832.69;;;25.03;38.64
9764;BME280;4921;43.214;27.936;2022-09-14T09:05:24;100817.56;;;25.08;42.02
9764;BME280;4921;43.214;27.936;2022-09-14T09:07:59;100829.38;;;25.14;42.82
9764;BME280;4921;43.214;27.936;2022-09-14T09:10:28;100827.06;;;25.17;42.25
9764;BME280;4921;43.214;27.936;2022-09-14T09:12:57;100821.25;;;25.20;40.33
9764;BME280;4921;43.214;27.936;2022-09-14T09:15:28;100820.81;;;25.30;39.49
9764;BME280;4921;43.214;27.936;2022-09-14T09:18:00;100818.09;;;25.36;40.12
9764;BME280;4921;43.214;27.936;2022-09-14T09:20:32;100823.06;;;25.46;42.99
9764;BME280;4921;43.214;27.936;2022-09-14T09:23:07;100822.19;;;25.52;42.46
9764;BME280;4921;43.214;27.936;2022-09-14T09:25:47;100821.56;;;25.56;40.45
9764;BME280;4921;43.214;27.936;2022-09-14T09:28:16;100815.91;;;25.64;40.52
9764;BME280;4921;43.214;27.936;2022-09-14T09:30:45;100816.72;;;25.71;40.16
9764;BME280;4921;43.214;27.936;2022-09-14T09:33:14;100812.78;;;25.74;38.79
9764;BME280;4921;43.214;27.936;2022-09-14T09:35:42;100812.50;;;25.82;36.88
9764;BME280;4921;43.214;27.936;2022-09-14T09:38:13;100803.81;;;25.80;34.06
9764;BME280;4921;43.214;27.936;2022-09-14T09:40:44;100802.34;;;25.84;35.31
9764;BME280;4921;43.214;27.936;2022-09-14T09:43:13;100808.28;;;25.93;36.19
9764;BME280;4921;43.214;27.936;2022-09-14T09:45:54;100802.25;;;25.97;36.32
9764;BME280;4921;43.214;27.936;2022-09-14T09:48:24;100790.88;;;25.95;34.41
9764;BME280;4921;43.214;27.936;2022-09-14T09:51:00;100795.78;;;26.05;35.04
9764;BME280;4921;43.214;27.936;2022-09-14T09:53:27;100796.38;;;26.13;34.17
9764;BME280;4921;43.214;27.936;2022-09-14T09:55:55;100800.06;;;26.19;34.68
9764;BME280;4921;43.214;27.936;2022-09-14T09:58:27;100784.94;;;26.18;33.32
9764;BME280;4921;43.214;27.936;2022-09-14T10:00:58;100790.72;;;26.21;33.86
9764;BME280;4921;43.214;27.936;2022-09-14T10:03:28;100792.94;;;26.31;32.11
9764;BME280;4921;43.214;27.936;2022-09-14T10:06:03;100796.44;;;26.31;32.32
9764;BME280;4921;43.214;27.936;2022-09-14T10:08:31;100787.31;;;26.32;33.16
9764;BME280;4921;43.214;27.936;2022-09-14T10:11:01;100789.47;;;26.42;31.81
9764;BME280;4921;43.214;27.936;2022-09-14T10:13:31;100785.31;;;26.46;33.03
9764;BME280;4921;43.214;27.936;2022-09-14T10:16:10;100795.97;;;26.59;32.35
9764;BME280;4921;43.214;27.936;2022-09-14T10:18:44;100786.78;;;26.67;32.31
9764;BME280;4921;43.214;27.936;2022-09-14T10:21:13;100790.63;;;26.77;32.56
9764;BME280;4921;43.214;27.936;2022-09-14T10:23:41;100785.59;;;26.81;31.04
9764;BME280;4921;43.214;27.936;2022-09-14T10:26:30;100781.06;;;26.99;30.82
9764;BME280;4921;43.214;27.936;2022-09-14T10:29:31;100779.84;;;27.13;31.09
9764;BME280;4921;43.214;27.936;2022-09-14T10:32:09;100783.38;;;27.32;30.54
9764;BME280;4921;43.214;27.936;2022-09-14T10:34:42;100790.44;;;27.51;29.84
9764;BME280;4921;43.214;27.936;2022-09-14T10:37:19;100791.69;;;27.67;28.91
9764;BME280;4921;43.214;27.936;2022-09-14T10:40:09;100780.94;;;27.90;28.45
9764;BME280;4921;43.214;27.936;2022-09-14T10:42:46;100775.94;;;28.05;27.27
9764;BME280;4921;43.214;27.936;2022-09-14T10:45:22;100773.97;;;28.24;27.29
9764;BME280;4921;43.214;27.936;2022-09-14T10:48:13;100773.63;;;28.43;27.65
9764;BME280;4921;43.214;27.936;2022-09-14T10:50:55;100775.44;;;28.61;27.42
9764;BME280;4921;43.214;27.936;2022-09-14T10:53:41;100769.28;;;28.77;28.30
9764;BME280;4921;43.214;27.936;2022-09-14T10:56:14;100752.19;;;28.88;27.08
9764;BME280;4921;43.214;27.936;2022-09-14T10:58:59;100741.22;;;28.95;26.96
9764;BME280;4921;43.214;27.936;2022-09-14T11:01:49;100754.59;;;29.24;26.65
9764;BME280;4921;43.214;27.936;2022-09-14T11:04:36;100755.97;;;29.38;26.41
9764;BME280;4921;43.214;27.936;2022-09-14T11:07:10;100750.13;;;29.58;25.66
9764;BME280;4921;43.214;27.936;2022-09-14T11:09:42;100749.25;;;29.69;25.54
9764;BME280;4921;43.214;27.936;2022-09-14T11:12:20;100738.91;;;29.83;24.92
9764;BME280;4921;43.214;27.936;2022-09-14T11:15:02;100744.59;;;29.98;24.97
9764;BME280;4921;43.214;27.936;2022-09-14T11:17:47;100741.56;;;30.11;24.97
9764;BME280;4921;43.214;27.936;2022-09-14T11:20:29;100746.34;;;30.21;25.17
9764;BME280;4921;43.214;27.936;2022-09-14T11:23:06;100765.31;;;30.32;24.71
9764;BME280;4921;43.214;27.936;2022-09-14T11:25:44;100755.97;;;30.11;30.18
9764;BME280;4921;43.214;27.936;2022-09-14T11:28:15;100762.97;;;30.07;35.76
9764;BME280;4921;43.214;27.936;2022-09-14T11:30:49;100748.56;;;29.90;36.62
9764;BME280;4921;43.214;27.936;2022-09-14T11:33:22;100760.00;;;29.64;37.22
9764;BME280;4921;43.214;27.936;2022-09-14T11:35:54;100759.09;;;29.59;37.24
9764;BME280;4921;43.214;27.936;2022-09-14T11:38:26;100757.31;;;29.53;37.90
9764;BME280;4921;43.214;27.936;2022-09-14T11:40:58;100765.75;;;29.39;38.42
9764;BME280;4921;43.214;27.936;2022-09-14T11:43:32;100765.00;;;29.16;37.63
9764;BME280;4921;43.214;27.936;2022-09-14T11:46:10;100774.41;;;29.13;38.19
9764;BME280;4921;43.214;27.936;2022-09-14T11:48:40;100761.34;;;28.99;38.13
9764;BME280;4921;43.214;27.936;2022-09-14T11:51:16;100755.75;;;28.77;39.49
9764;BME280;4921;43.214;27.936;2022-09-14T11:53:45;100744.13;;;28.65;39.52
9764;BME280;4921;43.214;27.936;2022-09-14T11:56:20;100744.69;;;28.44;40.59
9764;BME280;4921;43.214;27.936;2022-09-14T11:58:52;100741.66;;;27.87;42.45
9764;BME280;4921;43.214;27.936;2022-09-14T12:01:32;100740.72;;;27.82;42.87
9764;BME280;4921;43.214;27.936;2022-09-14T12:04:13;100731.09;;;27.08;45.28
9764;BME280;4921;43.214;27.936;2022-09-14T12:06:53;100727.56;;;27.08;46.73
9764;BME280;4921;43.214;27.936;2022-09-14T12:12:36;100720.81;;;26.81;47.65
9764;BME280;4921;43.214;27.936;2022-09-14T12:15:16;100715.47;;;26.56;48.13
9764;BME280;4921;43.214;27.936;2022-09-14T12:17:46;100703.09;;;26.48;48.92
9764;BME280;4921;43.214;27.936;2022-09-14T12:20:28;100711.84;;;26.26;50.93
9764;BME280;4921;43.214;27.936;2022-09-14T12:23:22;100704.94;;;26.05;52.61
9764;BME280;4921;43.214;27.936;2022-09-14T12:29:05;100694.16;;;25.81;54.93
9764;BME280;4921;43.214;27.936;2022-09-14T12:31:59;100695.31;;;25.91;57.09
9764;BME280;4921;43.214;27.936;2022-09-14T12:34:27;100690.50;;;25.68;56.56
9764;BME280;4921;43.214;27.936;2022-09-14T12:37:29;100692.88;;;25.58;57.59
9764;BME280;4921;43.214;27.936;2022-09-14T12:40:31;100690.63;;;25.55;60.61
9764;BME280;4921;43.214;27.936;2022-09-14T12:46:34;100690.75;;;25.29;63.08
9764;BME280;4921;43.214;27.936;2022-09-14T12:51:58;100677.63;;;25.46;63.60
9764;BME280;4921;43.214;27.936;2022-09-14T12:54:33;100674.19;;;25.63;63.53
9764;BME280;4921;43.214;27.936;2022-09-14T12:57:24;100671.16;;;25.78;62.94
9764;BME280;4921;43.214;27.936;2022-09-14T13:00:00;100666.72;;;25.65;63.32
9764;BME280;4921;43.214;27.936;2022-09-14T13:02:53;100669.22;;;25.60;66.12
9764;BME280;4921;43.214;27.936;2022-09-14T13:05:28;100662.34;;;25.33;70.21
9764;BME280;4921;43.214;27.936;2022-09-14T13:07:55;100670.44;;;25.33;70.80
9764;BME280;4921;43.214;27.936;2022-09-14T13:10:24;100659.94;;;25.56;68.16
9764;BME280;4921;43.214;27.936;2022-09-14T13:12:55;100654.97;;;25.53;65.62
9764;BME280;4921;43.214;27.936;2022-09-14T13:15:24;100645.09;;;25.72;63.21
9764;BME280;4921;43.214;27.936;2022-09-14T13:17:56;100660.06;;;25.93;62.13
9764;BME280;4921;43.214;27.936;2022-09-14T13:20:23;100657.09;;;26.01;61.47
9764;BME280;4921;43.214;27.936;2022-09-14T13:22:50;100652.88;;;26.11;62.08
9764;BME280;4921;43.214;27.936;2022-09-14T13:25:26;100652.41;;;26.14;62.94
9764;BME280;4921;43.214;27.936;2022-09-14T13:27:55;100628.00;;;26.09;63.34
9764;BME280;4921;43.214;27.936;2022-09-14T13:30:24;100665.56;;;26.04;61.34
9764;BME280;4921;43.214;27.936;2022-09-14T13:32:54;100654.81;;;26.22;61.23
9764;BME280;4921;43.214;27.936;2022-09-14T13:35:27;100656.78;;;26.15;62.51